createdAt,value
2017-11-04T00:00:05.556Z,39.1
2017-11-04T00:02:07.889Z,38.9
2017-11-04T00:04:05.643Z,38.9
2017-11-04T00:06:05.373Z,39.2
2017-11-04T00:08:05.338Z,39.2
2017-11-04T00:10:06.086Z,39.2
2017-11-04T00:12:05.989Z,39.1
2017-11-04T00:14:05.946Z,39.2
2017-11-04T00:16:05.720Z,39
2017-11-04T00:18:10.903Z,39.1
2017-11-04T00:20:08.387Z,39
2017-11-04T00:22:05.149Z,39
2017-11-04T00:24:05.118Z,39
2017-11-04T00:26:05.807Z,39
2017-11-04T00:28:05.724Z,39.2
2017-11-04T00:30:05.762Z,38.9
2017-11-04T00:32:05.684Z,39
2017-11-04T00:34:05.400Z,39
2017-11-04T00:36:10.171Z,39.2
2017-11-04T00:38:11.005Z,39.1
2017-11-04T00:40:05.706Z,39.1
2017-11-04T00:42:08.036Z,39
2017-11-04T00:44:08.306Z,39
2017-11-04T00:46:11.179Z,38.8
2017-11-04T00:48:05.392Z,38.6
2017-11-04T00:50:05.080Z,38.8
2017-11-04T00:52:05.757Z,39.1
2017-11-04T00:54:05.457Z,39.1
2017-11-04T00:56:07.760Z,39
2017-11-04T00:58:05.639Z,39.1
2017-11-04T01:00:05.347Z,39.1
2017-11-04T01:02:05.092Z,38.9
2017-11-04T01:04:05.837Z,39
2017-11-04T01:06:05.527Z,39
2017-11-04T01:08:05.255Z,39
2017-11-04T01:10:05.982Z,38.9
2017-11-04T01:12:05.696Z,38.9
2017-11-04T01:14:05.388Z,38.9
2017-11-04T01:16:05.093Z,38.9
2017-11-04T01:18:05.146Z,39.1
2017-11-04T01:20:05.969Z,39
2017-11-04T01:22:05.902Z,39
2017-11-04T01:24:05.602Z,38.9
2017-11-04T01:26:05.421Z,38.9
2017-11-04T01:28:05.166Z,38.8
2017-11-04T01:30:05.798Z,38.6
2017-11-04T01:32:05.553Z,38.7
2017-11-04T01:34:05.241Z,38.7
2017-11-04T01:36:05.952Z,38.5
2017-11-04T01:38:05.766Z,38.6
2017-11-04T01:40:07.984Z,38.6
2017-11-04T01:42:05.656Z,38.6
2017-11-04T01:44:05.369Z,38.7
2017-11-04T01:46:05.052Z,38.6
2017-11-04T01:48:05.766Z,38.6
2017-11-04T01:50:08.093Z,38.6
2017-11-04T01:52:08.340Z,38.7
2017-11-04T01:54:05.056Z,38.6
2017-11-04T01:56:08.417Z,38.4
2017-11-04T01:58:05.771Z,38.4
2017-11-04T02:00:08.480Z,38.6
2017-11-04T02:02:05.312Z,38.4
2017-11-04T02:04:05.041Z,38.8
2017-11-04T02:06:05.740Z,38.4
2017-11-04T02:08:05.993Z,38.6
2017-11-04T02:10:05.349Z,38.4
2017-11-04T02:12:05.037Z,38.4
2017-11-04T02:14:05.782Z,38.3
2017-11-04T02:16:05.472Z,38.4
2017-11-04T02:18:05.406Z,38.4
2017-11-04T02:20:05.123Z,38.4
2017-11-04T02:22:05.834Z,38.2
2017-11-04T02:24:05.507Z,38.2
2017-11-04T02:26:05.761Z,38.4
2017-11-04T02:28:08.037Z,38.4
2017-11-04T02:30:05.802Z,38.4
2017-11-04T02:32:05.566Z,38.4
2017-11-04T02:34:05.312Z,38.5
2017-11-04T02:36:05.093Z,38.4
2017-11-04T02:38:08.426Z,38.1
2017-11-04T02:40:10.173Z,38.5
2017-11-04T02:42:05.857Z,38.5
2017-11-04T02:44:08.187Z,38.1
2017-11-04T02:46:08.476Z,38
2017-11-04T02:48:05.133Z,38.3
2017-11-04T02:50:05.947Z,38.5
2017-11-04T02:52:05.224Z,38.5
2017-11-04T02:54:05.503Z,38.2
2017-11-04T02:56:05.308Z,38.2
2017-11-04T02:58:05.032Z,38.1
2017-11-04T03:00:05.771Z,38
2017-11-04T03:02:05.519Z,38.1
2017-11-04T03:04:10.268Z,38.1
2017-11-04T03:06:10.548Z,38
2017-11-04T03:08:05.276Z,38
2017-11-04T03:10:06.034Z,37.9
2017-11-04T03:12:05.770Z,38
2017-11-04T03:14:06.115Z,38
2017-11-04T03:16:05.411Z,37.9
2017-11-04T03:18:13.442Z,37.9
2017-11-04T03:20:05.836Z,37.9
2017-11-04T03:22:05.619Z,37.9
2017-11-04T03:24:07.867Z,37.9
2017-11-04T03:26:05.674Z,37.9
2017-11-04T03:28:10.472Z,37.9
2017-11-04T03:30:05.173Z,37.9
2017-11-04T03:32:08.226Z,38
2017-11-04T03:34:08.002Z,37.9
2017-11-04T03:36:08.240Z,38
2017-11-04T03:38:05.993Z,38
2017-11-04T03:40:13.473Z,37.8
2017-11-04T03:42:05.227Z,37.9
2017-11-04T03:44:08.511Z,37.9
2017-11-04T03:46:07.717Z,37.6
2017-11-04T03:48:05.403Z,37.6
2017-11-04T03:50:05.213Z,37.7
2017-11-04T03:52:08.459Z,37.8
2017-11-04T03:54:05.151Z,37.8
2017-11-04T03:56:11.046Z,37.6
2017-11-04T03:58:05.906Z,37.6
2017-11-04T04:00:05.754Z,37.5
2017-11-04T04:02:10.617Z,37.6
2017-11-04T04:04:07.809Z,37.6
2017-11-04T04:06:07.546Z,37.6
2017-11-04T04:08:05.341Z,37.6
2017-11-04T04:10:05.916Z,37.6
2017-11-04T04:12:05.643Z,37.7
2017-11-04T04:14:11.086Z,37.7
2017-11-04T04:16:05.810Z,37.7
2017-11-04T04:18:08.335Z,37.6
2017-11-04T04:20:05.071Z,37.4
2017-11-04T04:22:05.785Z,37.6
2017-11-04T04:24:10.556Z,37.5
2017-11-04T04:26:05.395Z,37.4
2017-11-04T04:28:05.162Z,37.4
2017-11-04T04:30:05.934Z,37.4
2017-11-04T04:32:08.212Z,37.7
2017-11-04T04:34:10.917Z,37.4
2017-11-04T04:36:05.610Z,37.4
2017-11-04T04:38:05.337Z,37.4
2017-11-04T04:40:05.092Z,37.3
2017-11-04T04:42:05.785Z,37.4
2017-11-04T04:44:05.588Z,37.4
2017-11-04T04:46:05.388Z,37.4
2017-11-04T04:48:05.132Z,37.4
2017-11-04T04:50:05.105Z,37.5
2017-11-04T04:52:05.832Z,37.4
2017-11-04T04:54:08.066Z,37.3
2017-11-04T04:56:05.488Z,37.3
2017-11-04T04:58:05.171Z,37.6
2017-11-04T05:00:05.890Z,37.5
2017-11-04T05:02:05.697Z,37.7
2017-11-04T05:04:05.374Z,37.7
2017-11-04T05:06:05.123Z,37.6
2017-11-04T05:08:10.982Z,37.6
2017-11-04T05:10:05.765Z,37.6
2017-11-04T05:12:04.989Z,37.7
2017-11-04T05:14:05.832Z,37.7
2017-11-04T05:16:08.112Z,37.9
2017-11-04T05:18:05.014Z,38
2017-11-04T05:20:05.745Z,38
2017-11-04T05:22:05.519Z,38
2017-11-04T05:24:05.257Z,38
2017-11-04T05:26:05.142Z,37.9
2017-11-04T05:28:05.369Z,37.8
2017-11-04T05:30:05.143Z,38
2017-11-04T05:32:08.116Z,38
2017-11-04T05:34:06.029Z,38
2017-11-04T05:36:09.202Z,37.8
2017-11-04T05:38:10.334Z,37.9
2017-11-04T05:40:05.004Z,38
2017-11-04T05:42:05.714Z,38.1
2017-11-04T05:44:10.510Z,37.9
2017-11-04T05:46:05.222Z,37.9
2017-11-04T05:48:05.936Z,38.3
2017-11-04T05:50:05.874Z,38
2017-11-04T05:52:05.592Z,38
2017-11-04T05:54:05.356Z,38.1
2017-11-04T05:56:05.750Z,38
2017-11-04T05:58:05.574Z,38.1
2017-11-04T06:00:07.787Z,38.3
2017-11-04T06:02:05.030Z,38
2017-11-04T06:04:05.728Z,38.3
2017-11-04T06:06:13.080Z,38.1
2017-11-04T06:08:05.788Z,38.1
2017-11-04T06:10:08.074Z,38
2017-11-04T06:12:05.768Z,38
2017-11-04T06:14:05.597Z,37.9
2017-11-04T06:16:05.381Z,38.3
2017-11-04T06:18:05.820Z,38.2
2017-11-04T06:20:05.554Z,38
2017-11-04T06:22:05.819Z,38
2017-11-04T06:24:05.501Z,38.3
2017-11-04T06:26:05.352Z,38
2017-11-04T06:28:05.033Z,38.1
2017-11-04T06:30:05.711Z,38.1
2017-11-04T06:32:05.431Z,38
2017-11-04T06:34:07.682Z,38.3
2017-11-04T06:36:05.451Z,38.3
2017-11-04T06:38:05.279Z,38.3
2017-11-04T06:40:06.054Z,38.3
2017-11-04T06:42:05.860Z,38.3
2017-11-04T06:44:05.118Z,38.2
2017-11-04T06:46:05.894Z,38.2
2017-11-04T06:48:05.639Z,38.2
2017-11-04T06:50:05.529Z,38.2
2017-11-04T06:52:07.781Z,38
2017-11-04T06:54:05.032Z,38
2017-11-04T06:56:05.796Z,38.3
2017-11-04T06:58:08.071Z,38
2017-11-04T07:00:05.797Z,38
2017-11-04T07:02:05.069Z,38
2017-11-04T07:04:05.797Z,38
2017-11-04T07:06:05.558Z,38.1
2017-11-04T07:08:12.857Z,37.9
2017-11-04T07:10:05.562Z,37.9
2017-11-04T07:12:05.290Z,38.1
2017-11-04T07:14:06.025Z,38
2017-11-04T07:16:08.318Z,37.9
2017-11-04T07:18:05.194Z,37.9
2017-11-04T07:20:10.949Z,38.2
2017-11-04T07:22:10.731Z,38.2
2017-11-04T07:24:05.501Z,38.2
2017-11-04T07:26:07.857Z,38.1
2017-11-04T07:28:10.642Z,38
2017-11-04T07:30:07.925Z,37.9
2017-11-04T07:32:05.631Z,37.9
2017-11-04T07:34:06.353Z,38.1
2017-11-04T07:36:05.952Z,38
2017-11-04T07:38:05.590Z,38
2017-11-04T07:40:05.884Z,38
2017-11-04T07:42:05.587Z,38.1
2017-11-04T07:44:07.932Z,37.9
2017-11-04T07:46:05.918Z,37.9
2017-11-04T07:48:06.867Z,38.1
2017-11-04T07:50:05.676Z,38.1
2017-11-04T07:52:05.360Z,38.1
2017-11-04T07:54:05.182Z,38.1
2017-11-04T07:56:05.908Z,38.2
2017-11-04T07:58:05.642Z,38
2017-11-04T08:00:08.488Z,37.9
2017-11-04T08:02:13.370Z,37.8
2017-11-04T08:04:05.026Z,38
2017-11-04T08:06:13.299Z,37.9
2017-11-04T08:08:05.150Z,37.9
2017-11-04T08:10:05.343Z,37.9
2017-11-04T08:12:05.687Z,37.8
2017-11-04T08:14:05.553Z,37.9
2017-11-04T08:16:05.243Z,37.7
2017-11-04T08:18:05.265Z,37.7
2017-11-04T08:20:06.137Z,37.5
2017-11-04T08:22:07.918Z,38
2017-11-04T08:24:08.165Z,37.7
2017-11-04T08:26:07.987Z,37.8
2017-11-04T08:28:05.201Z,37.8
2017-11-04T08:30:05.436Z,38
2017-11-04T08:32:05.120Z,38
2017-11-04T08:34:06.310Z,38.1
2017-11-04T08:36:04.985Z,37.8
2017-11-04T08:38:10.792Z,37.6
2017-11-04T08:40:05.516Z,37.6
2017-11-04T08:42:05.823Z,37.7
2017-11-04T08:44:05.058Z,38
2017-11-04T08:46:05.810Z,37.9
2017-11-04T08:48:05.605Z,37.5
2017-11-04T08:50:07.867Z,37.7
2017-11-04T08:52:05.617Z,37.8
2017-11-04T08:54:05.286Z,38.1
2017-11-04T08:56:05.036Z,38.3
2017-11-04T08:58:10.910Z,38.2
2017-11-04T09:00:05.651Z,38.2
2017-11-04T09:02:05.370Z,38.2
2017-11-04T09:04:08.140Z,38.9
2017-11-04T09:06:06.285Z,38.8
2017-11-04T09:08:05.448Z,39.4
2017-11-04T09:10:05.810Z,39.4
2017-11-04T09:12:05.723Z,38.4
2017-11-04T09:14:05.533Z,39.2
2017-11-04T09:16:05.208Z,39.5
2017-11-04T09:18:07.732Z,39.3
2017-11-04T09:20:05.997Z,39.2
2017-11-04T09:22:08.213Z,38.8
2017-11-04T09:24:05.897Z,38.8
2017-11-04T09:26:06.756Z,38.7
2017-11-04T09:28:05.468Z,38.3
2017-11-04T09:30:05.197Z,38.3
2017-11-04T09:32:08.115Z,38
2017-11-04T09:34:05.818Z,38.1
2017-11-04T09:36:05.607Z,38
2017-11-04T09:38:07.895Z,37.9
2017-11-04T09:40:05.198Z,38
2017-11-04T09:42:05.908Z,38.1
2017-11-04T09:44:05.801Z,38.2
2017-11-04T09:46:05.498Z,38
2017-11-04T09:48:05.312Z,38.3
2017-11-04T09:50:07.625Z,38.2
2017-11-04T09:52:12.973Z,38
2017-11-04T09:54:05.672Z,38.1
2017-11-04T09:56:05.377Z,38.1
2017-11-04T09:58:05.064Z,38.1
2017-11-04T10:00:07.764Z,38.1
2017-11-04T10:02:05.529Z,38
2017-11-04T10:04:05.995Z,38
2017-11-04T10:06:09.320Z,38
2017-11-04T10:08:06.015Z,38
2017-11-04T10:10:05.912Z,38.1
2017-11-04T10:12:08.557Z,37.9
2017-11-04T10:14:05.450Z,37.9
2017-11-04T10:16:05.142Z,37.9
2017-11-04T10:18:07.845Z,38.1
2017-11-04T10:20:05.860Z,38
2017-11-04T10:22:05.223Z,38
2017-11-04T10:24:06.029Z,38
2017-11-04T10:26:05.439Z,38.1
2017-11-04T10:28:08.282Z,38.1
2017-11-04T10:30:11.008Z,38
2017-11-04T10:32:08.505Z,38
2017-11-04T10:34:05.220Z,37.8
2017-11-04T10:36:11.059Z,37.9
2017-11-04T10:38:10.963Z,37.8
2017-11-04T10:40:05.775Z,37.8
2017-11-04T10:42:05.728Z,38
2017-11-04T10:44:07.927Z,37.8
2017-11-04T10:46:08.158Z,37.9
2017-11-04T10:48:05.876Z,37.8
2017-11-04T10:50:08.185Z,37.9
2017-11-04T10:52:05.589Z,37.9
2017-11-04T10:54:10.339Z,38
2017-11-04T10:56:11.874Z,38.1
2017-11-04T10:58:08.036Z,38.1
2017-11-04T11:00:05.692Z,38.1
2017-11-04T11:02:05.888Z,38
2017-11-04T11:04:05.071Z,38.1
2017-11-04T11:06:05.287Z,38.2
2017-11-04T11:08:06.291Z,38.2
2017-11-04T11:10:06.018Z,38.1
2017-11-04T11:12:08.471Z,38.1
2017-11-04T11:14:07.699Z,38.2
2017-11-04T11:16:05.431Z,38.2
2017-11-04T11:18:05.371Z,38.1
2017-11-04T11:20:05.132Z,38.3
2017-11-04T11:22:05.877Z,38.2
2017-11-04T11:24:05.680Z,38.2
2017-11-04T11:26:05.420Z,38.3
2017-11-04T11:28:05.143Z,38.1
2017-11-04T11:30:10.865Z,38.1
2017-11-04T11:32:08.102Z,38.1
2017-11-04T11:34:05.402Z,38.1
2017-11-04T11:36:07.621Z,38.2
2017-11-04T11:38:05.507Z,38.2
2017-11-04T11:40:07.788Z,38.2
2017-11-04T11:42:05.477Z,38.3
2017-11-04T11:44:05.308Z,38.3
2017-11-04T11:46:05.560Z,38.3
2017-11-04T11:48:05.384Z,38.2
2017-11-04T11:50:08.244Z,38.3
2017-11-04T11:52:05.503Z,38.3
2017-11-04T11:54:08.366Z,38.4
2017-11-04T11:56:08.179Z,38.1
2017-11-04T11:58:05.912Z,38.1
2017-11-04T12:00:05.878Z,38.2
2017-11-04T12:02:05.551Z,38.1
2017-11-04T12:04:07.849Z,38.2
2017-11-04T12:06:05.661Z,38.3
2017-11-04T12:08:05.335Z,38.2
2017-11-04T12:10:04.999Z,38.1
2017-11-04T12:12:05.721Z,38.3
2017-11-04T12:14:13.140Z,38.3
2017-11-04T12:16:05.909Z,38.1
2017-11-04T12:18:05.798Z,38.4
2017-11-04T12:20:05.569Z,38.2
2017-11-04T12:22:08.054Z,38.3
2017-11-04T12:24:08.345Z,38.4
2017-11-04T12:26:05.183Z,38.3
2017-11-04T12:28:05.931Z,38.4
2017-11-04T12:30:05.688Z,38.2
2017-11-04T12:32:06.413Z,38.1
2017-11-04T12:34:05.366Z,38.1
2017-11-04T12:36:07.642Z,38.3
2017-11-04T12:38:05.860Z,38.2
2017-11-04T12:40:10.905Z,38.2
2017-11-04T12:42:05.640Z,38.2
2017-11-04T12:44:05.403Z,38.2
2017-11-04T12:46:07.658Z,38.3
2017-11-04T12:48:05.437Z,38.3
2017-11-04T12:50:05.185Z,38.4
2017-11-04T12:52:05.898Z,38.3
2017-11-04T12:54:08.114Z,38.3
2017-11-04T12:56:05.904Z,38.3
2017-11-04T12:58:07.678Z,38.4
2017-11-04T13:00:05.482Z,38.4
2017-11-04T13:02:05.316Z,38.4
2017-11-04T13:04:08.086Z,38.1
2017-11-04T13:06:14.631Z,38.3
2017-11-04T13:08:06.364Z,38.3
2017-11-04T13:10:05.344Z,38.1
2017-11-04T13:12:05.029Z,38.5
2017-11-04T13:14:10.704Z,38.5
2017-11-04T13:16:10.586Z,38.3
2017-11-04T13:18:08.042Z,38.4
2017-11-04T13:20:05.977Z,38.4
2017-11-04T13:22:05.728Z,38.5
2017-11-04T13:24:05.694Z,38.6
2017-11-04T13:26:05.632Z,38.5
2017-11-04T13:28:05.757Z,38.4
2017-11-04T13:30:08.590Z,38.6
2017-11-04T13:32:06.590Z,38.6
2017-11-04T13:34:05.699Z,38.6
2017-11-04T13:36:08.031Z,38.7
2017-11-04T13:38:05.445Z,38.6
2017-11-04T13:40:07.694Z,38.5
2017-11-04T13:42:05.726Z,38.4
2017-11-04T13:44:05.441Z,38.8
2017-11-04T13:46:05.177Z,38.5
2017-11-04T13:48:05.435Z,38.8
2017-11-04T13:50:10.220Z,38.8
2017-11-04T13:52:06.195Z,38.8
2017-11-04T13:54:09.097Z,38.6
2017-11-04T13:56:06.056Z,38.8
2017-11-04T13:58:07.816Z,39
2017-11-04T14:00:05.518Z,39
2017-11-04T14:02:05.481Z,39
2017-11-04T14:04:07.819Z,38.6
2017-11-04T14:06:05.525Z,38.5
2017-11-04T14:08:07.839Z,38.8
2017-11-04T14:10:05.648Z,38.8
2017-11-04T14:12:05.903Z,38.8
2017-11-04T14:14:10.628Z,38.6
2017-11-04T14:16:05.358Z,38.6
2017-11-04T14:18:07.797Z,39.1
2017-11-04T14:20:05.644Z,38.8
2017-11-04T14:22:05.663Z,38.6
2017-11-04T14:24:05.362Z,38.7
2017-11-04T14:26:12.671Z,38.6
2017-11-04T14:28:05.423Z,38.6
2017-11-04T14:30:05.753Z,38.8
2017-11-04T14:32:08.783Z,38.6
2017-11-04T14:34:05.514Z,38.8
2017-11-04T14:36:05.287Z,38.5
2017-11-04T14:38:08.497Z,38.7
2017-11-04T14:40:07.754Z,38.8
2017-11-04T14:42:06.464Z,38.8
2017-11-04T14:44:05.400Z,38.8
2017-11-04T14:46:07.642Z,38.8
2017-11-04T14:48:08.438Z,38.8
2017-11-04T14:50:05.179Z,38.8
2017-11-04T14:52:07.941Z,38.8
2017-11-04T14:54:07.744Z,38.8
2017-11-04T14:56:05.527Z,38.8
2017-11-04T14:58:08.282Z,38.8
2017-11-04T15:00:06.004Z,38.8
2017-11-04T15:02:05.278Z,38.8
2017-11-04T15:04:08.538Z,38.8
2017-11-04T15:06:05.280Z,38.8
2017-11-04T15:08:06.149Z,38.6
2017-11-04T15:10:05.853Z,38.8
2017-11-04T15:12:05.544Z,38.6
2017-11-04T15:14:05.319Z,38.8
2017-11-04T15:16:05.143Z,38.6
2017-11-04T15:18:08.081Z,38.8
2017-11-04T15:20:05.906Z,38.6
2017-11-04T15:22:05.634Z,38.8
2017-11-04T15:24:05.355Z,38.8
2017-11-04T15:26:05.054Z,38.8
2017-11-04T15:28:05.757Z,38.8
2017-11-04T15:30:05.545Z,38.8
2017-11-04T15:32:05.375Z,38.8
2017-11-04T15:34:07.695Z,39.1
2017-11-04T15:36:05.965Z,38.8
2017-11-04T15:38:07.960Z,38.8
2017-11-04T15:40:05.773Z,38.8
2017-11-04T15:42:05.505Z,38.8
2017-11-04T15:44:07.958Z,38.8
2017-11-04T15:46:05.635Z,38.8
2017-11-04T15:48:05.876Z,39
2017-11-04T15:50:05.737Z,39.2
2017-11-04T15:52:05.441Z,39.4
2017-11-04T15:54:05.177Z,39.5
2017-11-04T15:56:06.030Z,39.6
2017-11-04T15:58:05.717Z,39.6
2017-11-04T16:00:05.952Z,39.5
2017-11-04T16:02:05.677Z,39.4
2017-11-04T16:04:10.428Z,39.1
2017-11-04T16:06:05.218Z,39.4
2017-11-04T16:08:05.945Z,39.8
2017-11-04T16:10:05.733Z,39.6
2017-11-04T16:12:05.961Z,39.3
2017-11-04T16:14:05.720Z,39.3
2017-11-04T16:16:05.416Z,39.3
2017-11-04T16:18:06.079Z,39.3
2017-11-04T16:20:05.568Z,39.3
2017-11-04T16:22:05.268Z,39.5
2017-11-04T16:24:06.451Z,39.4
2017-11-04T16:26:05.422Z,39.3
2017-11-04T16:28:07.705Z,39.3
2017-11-04T16:30:07.979Z,39.3
2017-11-04T16:32:05.727Z,39.3
2017-11-04T16:34:05.424Z,39.3
2017-11-04T16:36:05.691Z,39.4
2017-11-04T16:38:05.428Z,39.3
2017-11-04T16:40:05.185Z,39.5
2017-11-04T16:42:05.953Z,39.6
2017-11-04T16:44:06.086Z,39.3
2017-11-04T16:46:05.774Z,40.2
2017-11-04T16:48:05.011Z,40
2017-11-04T16:50:05.751Z,39.8
2017-11-04T16:52:05.455Z,40.2
2017-11-04T16:54:07.691Z,40.1
2017-11-04T16:56:06.028Z,40
2017-11-04T16:58:05.741Z,39.5
2017-11-04T17:00:05.546Z,39.7
2017-11-04T17:02:05.810Z,39.8
2017-11-04T17:04:05.503Z,39.6
2017-11-04T17:06:07.774Z,39.9
2017-11-04T17:08:05.579Z,39.8
2017-11-04T17:10:07.846Z,39.8
2017-11-04T17:12:05.550Z,39.9
2017-11-04T17:14:10.624Z,39.9
2017-11-04T17:16:07.894Z,40.2
2017-11-04T17:18:08.370Z,40.1
2017-11-04T17:20:05.238Z,40.1
2017-11-04T17:22:06.041Z,40.2
2017-11-04T17:24:05.756Z,40.4
2017-11-04T17:26:05.582Z,40.4
2017-11-04T17:28:05.371Z,40.1
2017-11-04T17:30:05.073Z,40.4
2017-11-04T17:32:05.867Z,40
2017-11-04T17:34:05.662Z,40.2
2017-11-04T17:36:05.368Z,40
2017-11-04T17:38:05.206Z,40.1
2017-11-04T17:40:08.444Z,40.2
2017-11-04T17:42:07.660Z,40.5
2017-11-04T17:44:07.989Z,40.3
2017-11-04T17:46:08.276Z,40.2
2017-11-04T17:48:06.157Z,40.3
2017-11-04T17:50:05.610Z,40.2
2017-11-04T17:52:05.330Z,40.1
2017-11-04T17:54:05.059Z,39.9
2017-11-04T17:56:05.938Z,40
2017-11-04T17:58:08.144Z,40.2
2017-11-04T18:00:08.362Z,40.1
2017-11-04T18:02:05.049Z,40
2017-11-04T18:04:05.765Z,40.2
2017-11-04T18:06:05.543Z,40.3
2017-11-04T18:08:05.354Z,40.5
2017-11-04T18:10:10.160Z,40.4
2017-11-04T18:12:05.798Z,40.5
2017-11-04T18:14:05.603Z,40.4
2017-11-04T18:16:10.379Z,40.6
2017-11-04T18:18:08.569Z,40.6
2017-11-04T18:20:05.678Z,40.6
2017-11-04T18:22:05.426Z,40.5
2017-11-04T18:24:05.131Z,40.5
2017-11-04T18:26:05.878Z,40.4
2017-11-04T18:28:05.098Z,40.7
2017-11-04T18:30:05.877Z,40.7
2017-11-04T18:32:07.817Z,40.8
2017-11-04T18:34:05.538Z,40.8
2017-11-04T18:36:05.236Z,40.9
2017-11-04T18:38:05.999Z,40.6
2017-11-04T18:40:09.433Z,40.5
2017-11-04T18:42:12.743Z,40.7
2017-11-04T18:44:05.531Z,40.8
2017-11-04T18:46:05.462Z,40.6
2017-11-04T18:48:08.960Z,40.9
2017-11-04T18:50:10.750Z,40.8
2017-11-04T18:52:05.465Z,40.8
2017-11-04T18:54:05.163Z,40.7
2017-11-04T18:56:06.105Z,40.8
2017-11-04T18:58:07.986Z,40.8
2017-11-04T19:00:07.796Z,41
2017-11-04T19:02:07.713Z,40.9
2017-11-04T19:04:07.990Z,40.2
2017-11-04T19:06:05.674Z,40.6
2017-11-04T19:08:05.384Z,40.9
2017-11-04T19:10:05.146Z,40.7
2017-11-04T19:12:13.468Z,40.6
2017-11-04T19:14:05.360Z,40.6
2017-11-04T19:16:05.068Z,40.7
2017-11-04T19:18:06.005Z,40.9
2017-11-04T19:20:05.734Z,40.9
2017-11-04T19:22:05.443Z,41.1
2017-11-04T19:24:12.894Z,41.3
2017-11-04T19:26:05.598Z,41.3
2017-11-04T19:28:12.854Z,41.2
2017-11-04T19:30:05.620Z,41.1
2017-11-04T19:32:08.421Z,41.4
2017-11-04T19:34:05.099Z,41.4
2017-11-04T19:36:05.796Z,41.1
2017-11-04T19:38:05.056Z,41.3
2017-11-04T19:40:05.722Z,41.1
2017-11-04T19:42:05.467Z,41.6
2017-11-04T19:44:05.218Z,41.7
2017-11-04T19:46:06.260Z,41.8
2017-11-04T19:48:05.007Z,41.8
2017-11-04T19:50:05.451Z,41.8
2017-11-04T19:52:05.158Z,41.9
2017-11-04T19:54:05.838Z,41.8
2017-11-04T19:56:07.649Z,42.1
2017-11-04T19:58:05.456Z,42.1
2017-11-04T20:00:05.690Z,42.1
2017-11-04T20:02:05.623Z,42.1
2017-11-04T20:04:05.545Z,42.4
2017-11-04T20:06:05.274Z,42.4
2017-11-04T20:08:05.300Z,42.4
2017-11-04T20:10:08.532Z,42.6
2017-11-04T20:12:05.205Z,42.6
2017-11-04T20:14:05.159Z,42.6
2017-11-04T20:16:05.426Z,42.6
2017-11-04T20:18:05.377Z,42.9
2017-11-04T20:20:07.962Z,43.2
2017-11-04T20:22:05.238Z,42.9
2017-11-04T20:24:05.959Z,43
2017-11-04T20:26:05.768Z,43.1
2017-11-04T20:28:05.623Z,43.1
2017-11-04T20:30:05.618Z,43.1
2017-11-04T20:32:05.329Z,43
2017-11-04T20:34:05.034Z,43.2
2017-11-04T20:36:08.244Z,43.2
2017-11-04T20:38:05.959Z,43.1
2017-11-04T20:40:08.312Z,43.1
2017-11-04T20:42:05.042Z,43.1
2017-11-04T20:44:06.091Z,43.1
2017-11-04T20:46:06.031Z,43.1
2017-11-04T20:48:05.817Z,43.1
2017-11-04T20:50:05.597Z,43.1
2017-11-04T20:52:07.822Z,43.1
2017-11-04T20:54:13.328Z,43.1
2017-11-04T20:56:05.034Z,43
2017-11-04T20:58:08.300Z,43
2017-11-04T21:00:05.245Z,43
2017-11-04T21:02:07.984Z,43
2017-11-04T21:04:07.831Z,43.1
2017-11-04T21:06:05.549Z,43
2017-11-04T21:08:05.835Z,43.2
2017-11-04T21:10:10.678Z,43.2
2017-11-04T21:12:05.986Z,43.1
2017-11-04T21:14:10.768Z,43
2017-11-04T21:16:05.527Z,42.8
2017-11-04T21:18:08.034Z,42.8
2017-11-04T21:20:05.791Z,42.5
2017-11-04T21:22:13.317Z,42.4
2017-11-04T21:24:05.623Z,42.4
2017-11-04T21:26:07.908Z,42.4
2017-11-04T21:28:05.715Z,42.4
2017-11-04T21:30:05.460Z,42.6
2017-11-04T21:32:05.761Z,42.6
2017-11-04T21:34:08.017Z,42.6
2017-11-04T21:36:05.736Z,42.6
2017-11-04T21:38:06.037Z,42.6
2017-11-04T21:40:08.311Z,42.5
2017-11-04T21:42:05.056Z,42.5
2017-11-04T21:44:05.790Z,42.5
2017-11-04T21:46:05.482Z,42.5
2017-11-04T21:48:10.387Z,42.2
2017-11-04T21:50:05.267Z,42.2
2017-11-04T21:52:06.050Z,42.4
2017-11-04T21:54:05.745Z,42.5
2017-11-04T21:56:06.003Z,42.5
2017-11-04T21:58:05.736Z,42.6
2017-11-04T22:00:05.484Z,42.6
2017-11-04T22:02:05.271Z,42.7
2017-11-04T22:04:11.044Z,42.6
2017-11-04T22:06:08.283Z,42.7
2017-11-04T22:08:13.521Z,42.6
2017-11-04T22:10:05.735Z,42.6
2017-11-04T22:12:06.153Z,42.6
2017-11-04T22:14:08.375Z,42.8
2017-11-04T22:16:05.060Z,42.8
2017-11-04T22:18:11.019Z,42.6
2017-11-04T22:20:05.887Z,42.6
2017-11-04T22:22:05.650Z,42.6
2017-11-04T22:24:05.627Z,42.6
2017-11-04T22:26:05.894Z,42.6
2017-11-04T22:28:05.672Z,42.8
2017-11-04T22:30:05.924Z,42.8
2017-11-04T22:32:05.720Z,42.9
2017-11-04T22:34:05.480Z,42.7
2017-11-04T22:36:05.347Z,42.6
2017-11-04T22:38:05.069Z,42.6
2017-11-04T22:40:05.855Z,42.7
2017-11-04T22:42:07.666Z,42.5
2017-11-04T22:44:05.384Z,42.5
2017-11-04T22:46:05.130Z,42.6
2017-11-04T22:48:05.896Z,42.6
2017-11-04T22:50:05.609Z,42.6
2017-11-04T22:52:07.891Z,42.5
2017-11-04T22:54:05.660Z,42.5
2017-11-04T22:56:08.605Z,42.4
2017-11-04T22:58:05.924Z,42.4
2017-11-04T23:00:08.136Z,42.3
2017-11-04T23:02:05.839Z,42.3
2017-11-04T23:04:05.145Z,42.3
2017-11-04T23:06:05.878Z,42.3
2017-11-04T23:08:08.188Z,42.2
2017-11-04T23:10:10.456Z,42.2
2017-11-04T23:12:05.200Z,42.2
2017-11-04T23:14:05.138Z,42.2
2017-11-04T23:16:05.865Z,42
2017-11-04T23:18:08.362Z,42.2
2017-11-04T23:20:05.060Z,42.2
2017-11-04T23:22:10.824Z,42.2
2017-11-04T23:24:05.697Z,41.9
2017-11-04T23:26:05.418Z,42
2017-11-04T23:28:05.667Z,42.2
2017-11-04T23:30:05.901Z,42.1
2017-11-04T23:32:05.684Z,41.9
2017-11-04T23:34:05.386Z,42.1
2017-11-04T23:36:05.092Z,41.9
2017-11-04T23:38:05.773Z,41.8
2017-11-04T23:40:05.553Z,41.9
2017-11-04T23:42:05.459Z,41.9
2017-11-04T23:44:05.721Z,41.9
2017-11-04T23:46:08.036Z,41.9
2017-11-04T23:48:05.774Z,41.9
2017-11-04T23:50:10.613Z,41.8
2017-11-04T23:52:05.525Z,41.9
2017-11-04T23:54:10.426Z,41.9
2017-11-04T23:56:05.279Z,41.9
2017-11-04T23:58:06.004Z,41.9
